createdAt,value
2022-07-28T00:00:30.444Z,150448.25
2022-07-28T00:05:47.318Z,150454.75
2022-07-28T00:10:53.379Z,150396.47
2022-07-28T00:15:56.851Z,150419.81
2022-07-28T00:21:02.393Z,150410.75
2022-07-28T00:26:05.842Z,150421.09
2022-07-28T00:31:11.284Z,150402.97
2022-07-28T00:36:18.305Z,150373.19
2022-07-28T00:41:28.237Z,150401.69
2022-07-28T00:46:31.807Z,150368.03
2022-07-28T00:51:37.046Z,150361.53
2022-07-28T00:56:40.965Z,150336.97
2022-07-28T01:01:44.368Z,150245.06
2022-07-28T01:07:09.012Z,150207.53
2022-07-28T01:12:21.583Z,150173.91
2022-07-28T01:17:37.131Z,150145.44
2022-07-28T01:22:52.388Z,150163.56
2022-07-28T01:28:10.713Z,150124.75
2022-07-28T01:33:19.755Z,150119.59
2022-07-28T01:38:25.068Z,150085.97
2022-07-28T01:43:32.353Z,150123.44
2022-07-28T01:48:40.309Z,150139.00
2022-07-28T01:53:45.920Z,150141.56
2022-07-28T01:58:52.275Z,150181.69
2022-07-28T02:03:59.209Z,150170.03
2022-07-28T02:09:04.992Z,150164.84
2022-07-28T02:14:09.892Z,150127.34
2022-07-28T02:19:15.437Z,150098.91
2022-07-28T02:24:23.095Z,150052.34
2022-07-28T02:29:49.661Z,150061.41
2022-07-28T02:34:54.687Z,150062.69
2022-07-28T02:40:01.352Z,149987.66
2022-07-28T02:45:08.085Z,149946.28
2022-07-28T02:50:15.568Z,149916.53
2022-07-28T02:55:19.593Z,149895.88
2022-07-28T03:00:23.657Z,149915.25
2022-07-28T03:05:29.281Z,149950.16
2022-07-28T03:16:20.331Z,149987.66
2022-07-28T03:21:25.781Z,149963.13
2022-07-28T03:26:37.104Z,149996.72
2022-07-28T03:31:44.673Z,150035.47
2022-07-28T03:36:55.216Z,150075.63
2022-07-28T03:42:00.597Z,150029.03
2022-07-28T03:47:03.980Z,150054.94
2022-07-28T03:52:08.864Z,150100.19
2022-07-28T03:57:12.762Z,150083.41
2022-07-28T04:02:17.035Z,150106.66
2022-07-28T04:07:21.791Z,150106.66
2022-07-28T04:12:25.141Z,150052.34
2022-07-28T04:17:28.548Z,150105.38
2022-07-28T04:22:33.247Z,150095.03
2022-07-28T04:27:37.422Z,150158.41
2022-07-28T04:32:41.278Z,150181.69
2022-07-28T04:37:46.457Z,150168.75
2022-07-28T04:42:50.451Z,150137.72
2022-07-28T04:47:53.806Z,150149.34
2022-07-28T04:52:59.001Z,150141.56
2022-07-28T04:58:02.383Z,150199.75
2022-07-28T05:03:07.152Z,150214.03
2022-07-28T05:08:11.812Z,150245.06
2022-07-28T05:13:15.573Z,150216.59
2022-07-28T05:18:18.959Z,150292.94
2022-07-28T05:23:23.714Z,150193.31
2022-07-28T05:28:27.139Z,150243.75
2022-07-28T05:33:32.132Z,150241.16
2022-07-28T05:38:36.885Z,150272.22
2022-07-28T05:43:40.214Z,150290.34
2022-07-28T05:48:43.627Z,150375.81
2022-07-28T05:53:48.424Z,150463.81
2022-07-28T05:58:53.056Z,150542.78
2022-07-28T06:04:26.162Z,150734.53
2022-07-28T06:09:21.153Z,151333.72
2022-07-28T06:14:24.487Z,151642.72
2022-07-28T06:19:27.982Z,151428.41
2022-07-28T06:24:42.397Z,151446.59
2022-07-28T06:29:50.873Z,151968.94
2022-07-28T06:34:54.639Z,152389.09
2022-07-28T06:39:59.632Z,153173.50
2022-07-28T06:45:03.016Z,152925.75
2022-07-28T06:50:08.160Z,153440.94
2022-07-28T06:55:34.418Z,153687.66
2022-07-28T07:00:39.488Z,153662.88
2022-07-28T07:05:43.316Z,153920.19
2022-07-28T07:10:48.006Z,154015.53
2022-07-28T07:15:51.483Z,154113.59
2022-07-28T07:20:55.710Z,154165.88
2022-07-28T07:26:00.464Z,154161.91
2022-07-28T07:31:04.108Z,154301.81
2022-07-28T07:36:08.021Z,154003.78
2022-07-28T07:41:13.209Z,154228.63
2022-07-28T07:46:17.471Z,154360.69
2022-07-28T07:51:21.119Z,154368.53
2022-07-28T07:56:25.803Z,154878.94
2022-07-28T08:01:29.176Z,155054.41
2022-07-28T08:06:32.657Z,154948.31
2022-07-28T08:11:40.550Z,155121.25
2022-07-28T08:16:44.020Z,155195.84
2022-07-28T08:21:47.512Z,154453.56
2022-07-28T08:26:52.720Z,155444.88
2022-07-28T08:31:56.074Z,155000.72
2022-07-28T08:36:59.907Z,155198.50
2022-07-28T08:42:07.206Z,155513.06
2022-07-28T08:47:12.329Z,155465.84
2022-07-28T08:52:15.864Z,155019.03
2022-07-28T08:57:27.037Z,154987.59
2022-07-28T09:02:33.966Z,154384.28
2022-07-28T09:07:41.671Z,154275.72
2022-07-28T09:12:46.670Z,154475.81
2022-07-28T09:17:54.487Z,154407.78
2022-07-28T09:23:00.923Z,154201.19
2022-07-28T09:28:11.209Z,153743.78
2022-07-28T09:33:41.200Z,153785.63
2022-07-28T09:38:42.279Z,153553.19
2022-07-28T09:43:52.512Z,153421.38
2022-07-28T09:48:59.906Z,153420.06
2022-07-28T09:54:12.423Z,153104.38
2022-07-28T09:59:18.647Z,153185.22
2022-07-28T10:04:33.852Z,153002.66
2022-07-28T10:09:37.754Z,153026.16
2022-07-28T10:14:42.464Z,153221.72
2022-07-28T10:19:45.796Z,153280.44
2022-07-28T10:24:52.877Z,153383.50
2022-07-28T10:30:00.035Z,153333.97
2022-07-28T10:35:06.357Z,153347.00
2022-07-28T10:40:12.695Z,153491.84
2022-07-28T10:45:18.120Z,153443.59
2022-07-28T10:50:22.372Z,153451.38
2022-07-28T10:55:34.919Z,153446.19
2022-07-28T11:00:55.285Z,153369.19
2022-07-28T11:05:59.803Z,153480.09
2022-07-28T11:11:07.600Z,153643.28
2022-07-28T11:16:24.926Z,153605.47
2022-07-28T11:21:30.976Z,153576.69
2022-07-28T11:26:46.035Z,153613.25
2022-07-28T11:32:05.116Z,153542.75
2022-07-28T11:37:10.276Z,153544.06
2022-07-28T11:42:26.157Z,153606.75
2022-07-28T11:47:31.883Z,153363.94
2022-07-28T11:52:35.231Z,153228.25
2022-07-28T11:57:44.150Z,152884.09
2022-07-28T12:02:49.135Z,153067.84
2022-07-28T12:07:53.749Z,153369.19
2022-07-28T12:12:58.949Z,153512.72
2022-07-28T12:18:04.099Z,153335.28
2022-07-28T12:23:10.397Z,153343.09
2022-07-28T12:28:15.778Z,153525.78
2022-07-28T12:33:27.463Z,153747.78
2022-07-28T12:38:33.162Z,153660.28
2022-07-28T12:43:36.723Z,153350.91
2022-07-28T12:48:42.609Z,153589.72
2022-07-28T12:53:52.002Z,153950.22
2022-07-28T12:59:06.323Z,154156.72
2022-07-28T13:04:11.237Z,154549.09
2022-07-28T13:09:23.399Z,154741.47
2022-07-28T13:14:42.494Z,155159.19
2022-07-28T13:19:48.635Z,155138.22
2022-07-28T13:24:51.989Z,154226.00
2022-07-28T13:29:56.398Z,153450.09
2022-07-28T13:35:03.206Z,154516.38
2022-07-28T13:40:07.629Z,154847.47
2022-07-28T13:45:11.579Z,155089.75
2022-07-28T13:50:22.097Z,154593.59
2022-07-28T13:55:27.511Z,155058.31
2022-07-28T14:00:30.978Z,154148.84
2022-07-28T14:05:36.118Z,154135.81
2022-07-28T14:10:40.026Z,153749.09
2022-07-28T14:15:43.515Z,153275.19
2022-07-28T14:20:48.288Z,153007.91
2022-07-28T14:25:52.194Z,152860.59
2022-07-28T14:30:55.728Z,152934.88
2022-07-28T14:36:00.559Z,153861.38
2022-07-28T14:41:03.975Z,154716.56
2022-07-28T14:46:16.204Z,155110.72
2022-07-28T14:51:25.616Z,155133.00
2022-07-28T14:56:28.993Z,154877.59
2022-07-28T15:01:35.697Z,154686.47
2022-07-28T15:06:41.126Z,154282.22
2022-07-28T15:11:46.382Z,153391.34
2022-07-28T15:16:50.137Z,153036.59
2022-07-28T15:21:54.861Z,152947.88
2022-07-28T15:26:58.311Z,153049.63
2022-07-28T15:32:02.013Z,152906.22
2022-07-28T15:37:09.226Z,152751.13
2022-07-28T15:42:13.133Z,152680.81
2022-07-28T15:47:16.668Z,152867.13
2022-07-28T15:52:21.402Z,153196.97
2022-07-28T15:57:24.736Z,153234.81
2022-07-28T16:02:41.121Z,152822.84
2022-07-28T16:07:46.076Z,152769.38
2022-07-28T16:12:49.437Z,152648.25
2022-07-28T16:17:52.833Z,152583.09
2022-07-28T16:22:58.486Z,152508.91
2022-07-28T16:28:03.611Z,152766.78
2022-07-28T16:33:08.049Z,152808.50
2022-07-28T16:38:13.058Z,152799.41
2022-07-28T16:43:16.712Z,152692.53
2022-07-28T16:48:20.861Z,152572.69
2022-07-28T16:53:25.573Z,152471.16
2022-07-28T16:58:29.280Z,152437.28
2022-07-28T17:03:32.723Z,152370.91
2022-07-28T17:08:37.779Z,152337.09
2022-07-28T17:13:45.166Z,152317.56
2022-07-28T17:18:49.092Z,152282.44
2022-07-28T17:23:54.127Z,152214.72
2022-07-28T17:28:58.427Z,152200.44
2022-07-28T17:34:01.898Z,152162.72
2022-07-28T17:39:08.059Z,152135.41
2022-07-28T17:44:11.571Z,152106.81
2022-07-28T17:49:15.075Z,152079.44
2022-07-28T17:54:23.590Z,152041.75
2022-07-28T17:59:34.314Z,152005.31
2022-07-28T18:04:51.287Z,151941.63
2022-07-28T18:09:55.998Z,151880.53
2022-07-28T18:14:59.533Z,151864.91
2022-07-28T18:20:03.180Z,151805.16
2022-07-28T18:25:08.989Z,151748.00
2022-07-28T18:30:14.335Z,151706.41
2022-07-28T18:35:18.430Z,151675.19
2022-07-28T18:40:24.058Z,151671.31
2022-07-28T18:45:27.573Z,151627.16
2022-07-28T18:50:31.847Z,151582.94
2022-07-28T18:55:36.899Z,151525.81
2022-07-28T19:00:40.472Z,151480.34
2022-07-28T19:05:46.218Z,151462.16
2022-07-28T19:10:51.698Z,151436.22
2022-07-28T19:15:55.250Z,151427.13
2022-07-28T19:20:58.900Z,151345.38
2022-07-28T19:26:03.912Z,151341.47
2022-07-28T19:31:10.187Z,151322.03
2022-07-28T19:36:14.831Z,151297.34
2022-07-28T19:41:20.005Z,151272.66
2022-07-28T19:46:24.337Z,151258.41
2022-07-28T19:51:29.766Z,151223.34
2022-07-28T19:56:34.855Z,151218.16
2022-07-28T20:01:45.977Z,151190.94
2022-07-28T20:06:55.636Z,151164.97
2022-07-28T20:12:00.583Z,151140.34
2022-07-28T20:17:04.303Z,151106.63
2022-07-28T20:22:08.015Z,151049.53
2022-07-28T20:27:12.763Z,151015.78
2022-07-28T20:32:16.145Z,151009.31
2022-07-28T20:37:35.665Z,150987.28
2022-07-28T20:42:41.950Z,150969.13
2022-07-28T20:47:45.761Z,150958.75
2022-07-28T20:52:49.310Z,150932.84
2022-07-28T20:57:55.985Z,150901.72
2022-07-28T21:03:00.580Z,150895.22
2022-07-28T21:08:09.136Z,150887.47
2022-07-28T21:13:15.050Z,150844.72
2022-07-28T21:18:18.477Z,150843.41
2022-07-28T21:23:21.873Z,150840.78
2022-07-28T21:28:44.380Z,150813.56
2022-07-28T21:33:47.751Z,150787.63
2022-07-28T21:38:51.101Z,150786.31
2022-07-28T21:44:00.817Z,150757.84
2022-07-28T21:49:07.152Z,150726.75
2022-07-28T21:54:10.508Z,150733.19
2022-07-28T21:59:15.215Z,150694.38
2022-07-28T22:04:19.559Z,150699.53
2022-07-28T22:09:23.445Z,150691.78
2022-07-28T22:14:32.298Z,150673.63
2022-07-28T22:19:35.577Z,150638.66
2022-07-28T22:24:38.892Z,150647.75
2022-07-28T22:29:50.021Z,150619.22
2022-07-28T22:34:55.564Z,150610.16
2022-07-28T22:39:59.227Z,150573.88
2022-07-28T22:45:04.008Z,150536.28
2022-07-28T22:50:09.206Z,150554.44
2022-07-28T23:00:36.238Z,150528.56
2022-07-28T23:05:40.105Z,150520.78
2022-07-28T23:10:43.417Z,150502.63
2022-07-28T23:15:48.151Z,150490.97
2022-07-28T23:20:51.485Z,150478.06
2022-07-28T23:25:54.852Z,150439.19
2022-07-28T23:30:59.628Z,150456.03
2022-07-28T23:36:02.922Z,150434.03
2022-07-28T23:41:11.530Z,150412.03
2022-07-28T23:46:16.287Z,150409.47
2022-07-28T23:51:21.302Z,150368.03
2022-07-28T23:56:24.818Z,150383.53
